sensor_id;sensor_type;location;lat;lon;timestamp;P1;durP1;ratioP1;P2;durP2;ratioP2
44696;SDS011;57264;47.480;19.354;2023-04-15T00:01:22;9.25;;;8.65;;
44696;SDS011;57264;47.480;19.354;2023-04-15T00:03:49;14.30;;;13.47;;
44696;SDS011;57264;47.480;19.354;2023-04-15T00:06:19;9.90;;;9.18;;
44696;SDS011;57264;47.480;19.354;2023-04-15T00:08:46;12.35;;;11.35;;
44696;SDS011;57264;47.480;19.354;2023-04-15T00:11:12;10.13;;;9.32;;
44696;SDS011;57264;47.480;19.354;2023-04-15T00:13:38;10.65;;;9.70;;
44696;SDS011;57264;47.480;19.354;2023-04-15T00:16:04;10.93;;;10.03;;
44696;SDS011;57264;47.480;19.354;2023-04-15T00:18:31;11.15;;;10.30;;
44696;SDS011;57264;47.480;19.354;2023-04-15T00:20:57;10.07;;;9.27;;
44696;SDS011;57264;47.480;19.354;2023-04-15T00:23:23;8.73;;;7.93;;
44696;SDS011;57264;47.480;19.354;2023-04-15T00:25:50;10.85;;;9.80;;
44696;SDS011;57264;47.480;19.354;2023-04-15T00:28:16;11.25;;;10.07;;
44696;SDS011;57264;47.480;19.354;2023-04-15T00:30:42;11.27;;;10.37;;
44696;SDS011;57264;47.480;19.354;2023-04-15T00:33:07;10.27;;;9.38;;
44696;SDS011;57264;47.480;19.354;2023-04-15T00:35:34;11.77;;;10.77;;
44696;SDS011;57264;47.480;19.354;2023-04-15T00:38:02;9.40;;;8.60;;
44696;SDS011;57264;47.480;19.354;2023-04-15T00:40:28;9.93;;;9.10;;
44696;SDS011;57264;47.480;19.354;2023-04-15T00:42:54;11.27;;;10.20;;
44696;SDS011;57264;47.480;19.354;2023-04-15T00:45:20;10.67;;;9.77;;
44696;SDS011;57264;47.480;19.354;2023-04-15T00:47:45;8.27;;;7.57;;
44696;SDS011;57264;47.480;19.354;2023-04-15T00:50:11;8.90;;;8.17;;
44696;SDS011;57264;47.480;19.354;2023-04-15T00:52:39;9.93;;;9.23;;
44696;SDS011;57264;47.480;19.354;2023-04-15T00:55:05;9.27;;;8.57;;
44696;SDS011;57264;47.480;19.354;2023-04-15T00:57:31;7.25;;;6.75;;
44696;SDS011;57264;47.480;19.354;2023-04-15T00:59:57;7.07;;;6.63;;
44696;SDS011;57264;47.480;19.354;2023-04-15T01:05:10;7.90;;;7.40;;
44696;SDS011;57264;47.480;19.354;2023-04-15T01:07:35;7.93;;;7.28;;
44696;SDS011;57264;47.480;19.354;2023-04-15T01:10:02;9.83;;;9.30;;
44696;SDS011;57264;47.480;19.354;2023-04-15T01:12:28;8.52;;;7.97;;
44696;SDS011;57264;47.480;19.354;2023-04-15T01:14:57;8.88;;;8.18;;
44696;SDS011;57264;47.480;19.354;2023-04-15T01:17:24;8.45;;;7.85;;
44696;SDS011;57264;47.480;19.354;2023-04-15T01:19:50;11.23;;;10.33;;
44696;SDS011;57264;47.480;19.354;2023-04-15T01:22:16;13.55;;;12.35;;
44696;SDS011;57264;47.480;19.354;2023-04-15T01:24:43;13.70;;;12.47;;
44696;SDS011;57264;47.480;19.354;2023-04-15T01:27:19;13.68;;;12.48;;
44696;SDS011;57264;47.480;19.354;2023-04-15T01:29:45;13.25;;;12.10;;
44696;SDS011;57264;47.480;19.354;2023-04-15T01:32:11;12.30;;;11.30;;
44696;SDS011;57264;47.480;19.354;2023-04-15T01:34:36;13.77;;;12.67;;
44696;SDS011;57264;47.480;19.354;2023-04-15T01:37:02;12.23;;;11.13;;
44696;SDS011;57264;47.480;19.354;2023-04-15T01:39:27;11.43;;;10.33;;
44696;SDS011;57264;47.480;19.354;2023-04-15T01:41:54;11.50;;;10.60;;
44696;SDS011;57264;47.480;19.354;2023-04-15T01:44:21;12.75;;;11.48;;
44696;SDS011;57264;47.480;19.354;2023-04-15T01:46:46;11.83;;;10.83;;
44696;SDS011;57264;47.480;19.354;2023-04-15T01:49:12;11.33;;;10.50;;
44696;SDS011;57264;47.480;19.354;2023-04-15T01:51:37;11.47;;;10.30;;
44696;SDS011;57264;47.480;19.354;2023-04-15T01:54:03;10.90;;;10.00;;
44696;SDS011;57264;47.480;19.354;2023-04-15T01:56:28;12.07;;;10.93;;
44696;SDS011;57264;47.480;19.354;2023-04-15T01:58:54;12.23;;;11.13;;
44696;SDS011;57264;47.480;19.354;2023-04-15T02:01:19;12.37;;;11.37;;
44696;SDS011;57264;47.480;19.354;2023-04-15T02:03:46;12.75;;;11.75;;
44696;SDS011;57264;47.480;19.354;2023-04-15T02:06:12;10.47;;;9.67;;
44696;SDS011;57264;47.480;19.354;2023-04-15T02:08:37;11.37;;;10.33;;
44696;SDS011;57264;47.480;19.354;2023-04-15T02:11:03;10.00;;;9.20;;
44696;SDS011;57264;47.480;19.354;2023-04-15T02:13:29;13.43;;;12.43;;
44696;SDS011;57264;47.480;19.354;2023-04-15T02:15:54;11.23;;;10.33;;
44696;SDS011;57264;47.480;19.354;2023-04-15T02:18:20;12.47;;;11.50;;
44696;SDS011;57264;47.480;19.354;2023-04-15T02:20:45;11.83;;;10.90;;
44696;SDS011;57264;47.480;19.354;2023-04-15T02:23:11;11.43;;;10.63;;
44696;SDS011;57264;47.480;19.354;2023-04-15T02:25:37;12.00;;;11.03;;
44696;SDS011;57264;47.480;19.354;2023-04-15T02:28:05;11.05;;;10.05;;
44696;SDS011;57264;47.480;19.354;2023-04-15T02:30:31;11.63;;;10.63;;
44696;SDS011;57264;47.480;19.354;2023-04-15T02:32:57;12.05;;;11.05;;
44696;SDS011;57264;47.480;19.354;2023-04-15T02:35:24;13.15;;;12.05;;
44696;SDS011;57264;47.480;19.354;2023-04-15T02:37:50;13.43;;;12.43;;
44696;SDS011;57264;47.480;19.354;2023-04-15T02:40:15;14.80;;;13.60;;
44696;SDS011;57264;47.480;19.354;2023-04-15T02:42:41;13.67;;;12.47;;
44696;SDS011;57264;47.480;19.354;2023-04-15T02:45:08;13.32;;;12.05;;
44696;SDS011;57264;47.480;19.354;2023-04-15T02:47:36;13.63;;;12.43;;
44696;SDS011;57264;47.480;19.354;2023-04-15T02:50:06;14.07;;;12.75;;
44696;SDS011;57264;47.480;19.354;2023-04-15T02:52:38;15.50;;;13.98;;
44696;SDS011;57264;47.480;19.354;2023-04-15T02:55:05;15.95;;;13.38;;
44696;SDS011;57264;47.480;19.354;2023-04-15T02:57:32;14.32;;;12.90;;
44696;SDS011;57264;47.480;19.354;2023-04-15T02:59:59;16.23;;;14.60;;
44696;SDS011;57264;47.480;19.354;2023-04-15T03:02:24;16.53;;;13.70;;
44696;SDS011;57264;47.480;19.354;2023-04-15T03:04:50;15.23;;;13.63;;
44696;SDS011;57264;47.480;19.354;2023-04-15T03:07:16;15.87;;;14.10;;
44696;SDS011;57264;47.480;19.354;2023-04-15T03:09:42;16.35;;;14.75;;
44696;SDS011;57264;47.480;19.354;2023-04-15T03:12:07;15.37;;;13.97;;
44696;SDS011;57264;47.480;19.354;2023-04-15T03:14:33;14.47;;;13.00;;
44696;SDS011;57264;47.480;19.354;2023-04-15T03:16:58;14.40;;;12.93;;
44696;SDS011;57264;47.480;19.354;2023-04-15T03:19:24;13.33;;;12.03;;
44696;SDS011;57264;47.480;19.354;2023-04-15T03:21:50;14.90;;;13.30;;
44696;SDS011;57264;47.480;19.354;2023-04-15T03:24:16;14.07;;;12.43;;
44696;SDS011;57264;47.480;19.354;2023-04-15T03:26:42;15.98;;;12.52;;
44696;SDS011;57264;47.480;19.354;2023-04-15T03:29:08;14.63;;;13.23;;
44696;SDS011;57264;47.480;19.354;2023-04-15T03:31:33;15.17;;;12.90;;
44696;SDS011;57264;47.480;19.354;2023-04-15T03:33:59;15.43;;;13.83;;
44696;SDS011;57264;47.480;19.354;2023-04-15T03:36:24;15.67;;;14.03;;
44696;SDS011;57264;47.480;19.354;2023-04-15T03:38:51;17.02;;;14.90;;
44696;SDS011;57264;47.480;19.354;2023-04-15T03:41:17;17.03;;;15.33;;
44696;SDS011;57264;47.480;19.354;2023-04-15T03:43:42;16.77;;;14.23;;
44696;SDS011;57264;47.480;19.354;2023-04-15T03:46:07;21.17;;;14.20;;
44696;SDS011;57264;47.480;19.354;2023-04-15T03:48:33;17.73;;;13.87;;
44696;SDS011;57264;47.480;19.354;2023-04-15T03:50:58;20.07;;;14.80;;
44696;SDS011;57264;47.480;19.354;2023-04-15T03:53:24;21.67;;;16.13;;
44696;SDS011;57264;47.480;19.354;2023-04-15T03:55:50;20.20;;;15.57;;
44696;SDS011;57264;47.480;19.354;2023-04-15T03:58:15;16.30;;;14.60;;
44696;SDS011;57264;47.480;19.354;2023-04-15T04:00:41;17.30;;;15.47;;
44696;SDS011;57264;47.480;19.354;2023-04-15T04:03:06;16.63;;;14.67;;
44696;SDS011;57264;47.480;19.354;2023-04-15T04:05:32;14.57;;;13.17;;
44696;SDS011;57264;47.480;19.354;2023-04-15T04:07:57;15.77;;;14.13;;
44696;SDS011;57264;47.480;19.354;2023-04-15T04:10:23;15.37;;;13.77;;
44696;SDS011;57264;47.480;19.354;2023-04-15T04:12:48;16.27;;;14.47;;
44696;SDS011;57264;47.480;19.354;2023-04-15T04:15:14;18.00;;;14.07;;
44696;SDS011;57264;47.480;19.354;2023-04-15T04:17:40;15.73;;;14.23;;
44696;SDS011;57264;47.480;19.354;2023-04-15T04:20:05;15.60;;;14.00;;
44696;SDS011;57264;47.480;19.354;2023-04-15T04:22:37;15.93;;;14.23;;
44696;SDS011;57264;47.480;19.354;2023-04-15T04:27:29;15.33;;;13.93;;
44696;SDS011;57264;47.480;19.354;2023-04-15T04:29:55;14.20;;;12.90;;
44696;SDS011;57264;47.480;19.354;2023-04-15T04:32:20;15.33;;;13.83;;
44696;SDS011;57264;47.480;19.354;2023-04-15T04:34:46;15.00;;;12.73;;
44696;SDS011;57264;47.480;19.354;2023-04-15T04:37:12;14.63;;;13.23;;
44696;SDS011;57264;47.480;19.354;2023-04-15T04:39:37;14.30;;;12.97;;
44696;SDS011;57264;47.480;19.354;2023-04-15T04:42:04;13.32;;;12.13;;
44696;SDS011;57264;47.480;19.354;2023-04-15T04:44:29;14.07;;;12.57;;
44696;SDS011;57264;47.480;19.354;2023-04-15T04:46:58;13.53;;;12.33;;
44696;SDS011;57264;47.480;19.354;2023-04-15T04:49:23;13.88;;;12.45;;
44696;SDS011;57264;47.480;19.354;2023-04-15T04:51:49;13.77;;;12.60;;
44696;SDS011;57264;47.480;19.354;2023-04-15T04:54:30;13.65;;;12.35;;
44696;SDS011;57264;47.480;19.354;2023-04-15T04:56:56;14.43;;;12.53;;
44696;SDS011;57264;47.480;19.354;2023-04-15T04:59:22;14.37;;;12.80;;
44696;SDS011;57264;47.480;19.354;2023-04-15T05:01:48;13.32;;;11.98;;
44696;SDS011;57264;47.480;19.354;2023-04-15T05:04:13;15.03;;;13.37;;
44696;SDS011;57264;47.480;19.354;2023-04-15T05:06:39;16.60;;;15.07;;
44696;SDS011;57264;47.480;19.354;2023-04-15T05:09:04;16.73;;;14.93;;
44696;SDS011;57264;47.480;19.354;2023-04-15T05:11:30;14.90;;;13.47;;
44696;SDS011;57264;47.480;19.354;2023-04-15T05:13:56;15.23;;;13.67;;
44696;SDS011;57264;47.480;19.354;2023-04-15T05:16:22;15.00;;;13.50;;
44696;SDS011;57264;47.480;19.354;2023-04-15T05:18:49;14.18;;;12.70;;
44696;SDS011;57264;47.480;19.354;2023-04-15T05:21:15;13.80;;;12.40;;
44696;SDS011;57264;47.480;19.354;2023-04-15T05:23:41;12.93;;;10.77;;
44696;SDS011;57264;47.480;19.354;2023-04-15T05:26:07;12.27;;;11.17;;
44696;SDS011;57264;47.480;19.354;2023-04-15T05:28:32;11.83;;;10.60;;
44696;SDS011;57264;47.480;19.354;2023-04-15T05:30:58;11.27;;;10.27;;
44696;SDS011;57264;47.480;19.354;2023-04-15T05:33:23;18.10;;;12.00;;
44696;SDS011;57264;47.480;19.354;2023-04-15T05:35:49;20.93;;;19.33;;
44696;SDS011;57264;47.480;19.354;2023-04-15T05:38:15;13.23;;;11.93;;
44696;SDS011;57264;47.480;19.354;2023-04-15T05:40:40;17.90;;;16.40;;
44696;SDS011;57264;47.480;19.354;2023-04-15T05:43:06;12.60;;;11.50;;
44696;SDS011;57264;47.480;19.354;2023-04-15T05:45:32;22.33;;;20.63;;
44696;SDS011;57264;47.480;19.354;2023-04-15T05:47:57;9.37;;;8.47;;
44696;SDS011;57264;47.480;19.354;2023-04-15T05:50:23;11.47;;;10.47;;
44696;SDS011;57264;47.480;19.354;2023-04-15T05:52:48;10.57;;;9.77;;
44696;SDS011;57264;47.480;19.354;2023-04-15T05:55:14;8.00;;;7.20;;
44696;SDS011;57264;47.480;19.354;2023-04-15T05:57:40;6.90;;;6.13;;
44696;SDS011;57264;47.480;19.354;2023-04-15T06:00:05;6.13;;;4.93;;
44696;SDS011;57264;47.480;19.354;2023-04-15T06:02:32;8.75;;;6.28;;
44696;SDS011;57264;47.480;19.354;2023-04-15T06:04:57;5.57;;;4.97;;
44696;SDS011;57264;47.480;19.354;2023-04-15T06:07:23;5.50;;;5.00;;
44696;SDS011;57264;47.480;19.354;2023-04-15T06:09:48;5.97;;;5.37;;
44696;SDS011;57264;47.480;19.354;2023-04-15T06:12:14;6.67;;;5.63;;
44696;SDS011;57264;47.480;19.354;2023-04-15T06:14:41;5.70;;;5.10;;
44696;SDS011;57264;47.480;19.354;2023-04-15T06:17:07;6.63;;;5.83;;
44696;SDS011;57264;47.480;19.354;2023-04-15T06:19:33;6.80;;;5.20;;
44696;SDS011;57264;47.480;19.354;2023-04-15T06:22:00;7.57;;;5.22;;
44696;SDS011;57264;47.480;19.354;2023-04-15T06:24:26;7.03;;;5.70;;
44696;SDS011;57264;47.480;19.354;2023-04-15T06:26:51;6.60;;;4.70;;
44696;SDS011;57264;47.480;19.354;2023-04-15T06:29:17;6.00;;;4.97;;
44696;SDS011;57264;47.480;19.354;2023-04-15T06:31:42;6.03;;;4.90;;
44696;SDS011;57264;47.480;19.354;2023-04-15T06:34:08;5.50;;;5.00;;
44696;SDS011;57264;47.480;19.354;2023-04-15T06:36:34;6.23;;;4.80;;
44696;SDS011;57264;47.480;19.354;2023-04-15T06:38:59;4.90;;;4.50;;
44696;SDS011;57264;47.480;19.354;2023-04-15T06:41:25;5.20;;;4.70;;
44696;SDS011;57264;47.480;19.354;2023-04-15T06:43:51;7.37;;;5.43;;
44696;SDS011;57264;47.480;19.354;2023-04-15T06:46:16;6.47;;;5.27;;
44696;SDS011;57264;47.480;19.354;2023-04-15T06:48:42;5.70;;;5.10;;
44696;SDS011;57264;47.480;19.354;2023-04-15T06:51:08;5.47;;;4.97;;
44696;SDS011;57264;47.480;19.354;2023-04-15T06:53:34;5.20;;;4.70;;
44696;SDS011;57264;47.480;19.354;2023-04-15T06:56:02;5.35;;;4.85;;
44696;SDS011;57264;47.480;19.354;2023-04-15T06:58:27;5.05;;;4.43;;
44696;SDS011;57264;47.480;19.354;2023-04-15T07:00:53;5.43;;;4.70;;
44696;SDS011;57264;47.480;19.354;2023-04-15T07:03:18;4.40;;;4.00;;
44696;SDS011;57264;47.480;19.354;2023-04-15T07:05:44;4.53;;;3.87;;
44696;SDS011;57264;47.480;19.354;2023-04-15T07:08:09;4.30;;;4.00;;
44696;SDS011;57264;47.480;19.354;2023-04-15T07:10:35;5.13;;;4.20;;
44696;SDS011;57264;47.480;19.354;2023-04-15T07:13:01;4.00;;;3.43;;
44696;SDS011;57264;47.480;19.354;2023-04-15T07:15:26;4.57;;;3.40;;
44696;SDS011;57264;47.480;19.354;2023-04-15T07:17:52;5.50;;;3.90;;
44696;SDS011;57264;47.480;19.354;2023-04-15T07:20:18;3.90;;;3.27;;
44696;SDS011;57264;47.480;19.354;2023-04-15T07:22:44;3.77;;;3.47;;
44696;SDS011;57264;47.480;19.354;2023-04-15T07:25:09;3.90;;;3.50;;
44696;SDS011;57264;47.480;19.354;2023-04-15T07:27:35;3.63;;;3.33;;
44696;SDS011;57264;47.480;19.354;2023-04-15T07:30:01;5.03;;;3.23;;
44696;SDS011;57264;47.480;19.354;2023-04-15T07:32:27;4.20;;;3.80;;
44696;SDS011;57264;47.480;19.354;2023-04-15T07:34:55;4.07;;;3.30;;
44696;SDS011;57264;47.480;19.354;2023-04-15T07:37:21;4.73;;;3.17;;
44696;SDS011;57264;47.480;19.354;2023-04-15T07:39:47;4.87;;;3.23;;
44696;SDS011;57264;47.480;19.354;2023-04-15T07:42:13;2.40;;;2.20;;
44696;SDS011;57264;47.480;19.354;2023-04-15T07:44:39;2.47;;;2.27;;
44696;SDS011;57264;47.480;19.354;2023-04-15T07:47:05;1.77;;;1.60;;
44696;SDS011;57264;47.480;19.354;2023-04-15T07:49:30;2.20;;;1.90;;
44696;SDS011;57264;47.480;19.354;2023-04-15T07:51:56;2.63;;;1.70;;
44696;SDS011;57264;47.480;19.354;2023-04-15T07:54:24;2.80;;;1.90;;
44696;SDS011;57264;47.480;19.354;2023-04-15T07:56:49;1.90;;;1.57;;
44696;SDS011;57264;47.480;19.354;2023-04-15T07:59:16;1.97;;;1.73;;
44696;SDS011;57264;47.480;19.354;2023-04-15T08:01:42;1.70;;;1.57;;
44696;SDS011;57264;47.480;19.354;2023-04-15T08:04:09;1.53;;;1.40;;
44696;SDS011;57264;47.480;19.354;2023-04-15T08:06:34;1.93;;;1.40;;
44696;SDS011;57264;47.480;19.354;2023-04-15T08:09:03;2.13;;;1.50;;
44696;SDS011;57264;47.480;19.354;2023-04-15T08:11:29;2.50;;;1.73;;
44696;SDS011;57264;47.480;19.354;2023-04-15T08:13:55;4.87;;;1.73;;
44696;SDS011;57264;47.480;19.354;2023-04-15T08:16:22;3.23;;;1.53;;
44696;SDS011;57264;47.480;19.354;2023-04-15T08:18:49;1.47;;;1.37;;
44696;SDS011;57264;47.480;19.354;2023-04-15T08:21:16;1.43;;;1.30;;
44696;SDS011;57264;47.480;19.354;2023-04-15T08:23:44;1.43;;;1.27;;
44696;SDS011;57264;47.480;19.354;2023-04-15T08:26:10;1.20;;;1.10;;
44696;SDS011;57264;47.480;19.354;2023-04-15T08:28:37;2.07;;;1.00;;
44696;SDS011;57264;47.480;19.354;2023-04-15T08:31:04;0.80;;;0.80;;
44696;SDS011;57264;47.480;19.354;2023-04-15T08:33:30;3.43;;;0.73;;
44696;SDS011;57264;47.480;19.354;2023-04-15T08:35:56;0.70;;;0.70;;
44696;SDS011;57264;47.480;19.354;2023-04-15T08:38:22;1.40;;;0.90;;
44696;SDS011;57264;47.480;19.354;2023-04-15T08:40:47;0.80;;;0.80;;
44696;SDS011;57264;47.480;19.354;2023-04-15T08:43:20;2.70;;;0.90;;
44696;SDS011;57264;47.480;19.354;2023-04-15T08:45:50;1.20;;;1.10;;
44696;SDS011;57264;47.480;19.354;2023-04-15T08:48:17;2.37;;;0.90;;
44696;SDS011;57264;47.480;19.354;2023-04-15T08:50:43;2.40;;;1.00;;
44696;SDS011;57264;47.480;19.354;2023-04-15T08:53:09;0.77;;;0.77;;
44696;SDS011;57264;47.480;19.354;2023-04-15T08:55:38;2.60;;;1.00;;
44696;SDS011;57264;47.480;19.354;2023-04-15T08:58:12;1.10;;;1.00;;
44696;SDS011;57264;47.480;19.354;2023-04-15T09:00:38;1.03;;;0.90;;
44696;SDS011;57264;47.480;19.354;2023-04-15T09:03:05;2.20;;;1.27;;
44696;SDS011;57264;47.480;19.354;2023-04-15T09:05:32;3.27;;;1.30;;
44696;SDS011;57264;47.480;19.354;2023-04-15T09:07:58;4.10;;;1.60;;
44696;SDS011;57264;47.480;19.354;2023-04-15T09:10:25;1.47;;;1.23;;
44696;SDS011;57264;47.480;19.354;2023-04-15T09:12:50;0.80;;;0.80;;
44696;SDS011;57264;47.480;19.354;2023-04-15T09:15:16;1.23;;;0.90;;
44696;SDS011;57264;47.480;19.354;2023-04-15T09:17:44;0.90;;;0.73;;
44696;SDS011;57264;47.480;19.354;2023-04-15T09:20:14;1.57;;;1.20;;
44696;SDS011;57264;47.480;19.354;2023-04-15T09:22:41;1.40;;;1.03;;
44696;SDS011;57264;47.480;19.354;2023-04-15T09:27:53;2.27;;;1.10;;
44696;SDS011;57264;47.480;19.354;2023-04-15T09:30:19;1.53;;;1.27;;
44696;SDS011;57264;47.480;19.354;2023-04-15T09:35:15;1.63;;;1.27;;
44696;SDS011;57264;47.480;19.354;2023-04-15T09:37:40;1.40;;;1.00;;
44696;SDS011;57264;47.480;19.354;2023-04-15T09:40:06;1.10;;;1.00;;
44696;SDS011;57264;47.480;19.354;2023-04-15T09:42:34;4.20;;;1.10;;
44696;SDS011;57264;47.480;19.354;2023-04-15T09:45:13;1.43;;;0.80;;
44696;SDS011;57264;47.480;19.354;2023-04-15T09:47:39;1.00;;;0.90;;
44696;SDS011;57264;47.480;19.354;2023-04-15T09:50:05;1.23;;;0.90;;
44696;SDS011;57264;47.480;19.354;2023-04-15T09:52:31;2.00;;;1.10;;
44696;SDS011;57264;47.480;19.354;2023-04-15T09:54:57;1.03;;;0.97;;
44696;SDS011;57264;47.480;19.354;2023-04-15T09:57:24;0.67;;;0.67;;
44696;SDS011;57264;47.480;19.354;2023-04-15T09:59:49;0.90;;;0.90;;
44696;SDS011;57264;47.480;19.354;2023-04-15T10:02:15;0.50;;;0.50;;
44696;SDS011;57264;47.480;19.354;2023-04-15T10:04:44;1.00;;;0.80;;
44696;SDS011;57264;47.480;19.354;2023-04-15T10:07:13;1.13;;;0.70;;
44696;SDS011;57264;47.480;19.354;2023-04-15T10:09:39;0.70;;;0.70;;
44696;SDS011;57264;47.480;19.354;2023-04-15T10:12:07;1.20;;;0.73;;
44696;SDS011;57264;47.480;19.354;2023-04-15T10:14:33;3.53;;;1.00;;
44696;SDS011;57264;47.480;19.354;2023-04-15T10:17:03;1.47;;;0.90;;
44696;SDS011;57264;47.480;19.354;2023-04-15T10:19:32;0.93;;;0.83;;
44696;SDS011;57264;47.480;19.354;2023-04-15T10:24:27;1.07;;;0.97;;
44696;SDS011;57264;47.480;19.354;2023-04-15T10:26:56;2.17;;;0.80;;
44696;SDS011;57264;47.480;19.354;2023-04-15T10:29:24;0.70;;;0.70;;
44696;SDS011;57264;47.480;19.354;2023-04-15T10:31:55;0.53;;;0.53;;
44696;SDS011;57264;47.480;19.354;2023-04-15T10:34:23;0.77;;;0.77;;
44696;SDS011;57264;47.480;19.354;2023-04-15T10:36:49;0.83;;;0.70;;
44696;SDS011;57264;47.480;19.354;2023-04-15T10:42:12;0.53;;;0.53;;
44696;SDS011;57264;47.480;19.354;2023-04-15T10:44:49;0.67;;;0.63;;
44696;SDS011;57264;47.480;19.354;2023-04-15T10:47:19;1.80;;;0.90;;
44696;SDS011;57264;47.480;19.354;2023-04-15T10:49:49;1.30;;;0.63;;
44696;SDS011;57264;47.480;19.354;2023-04-15T10:52:26;1.37;;;0.93;;
44696;SDS011;57264;47.480;19.354;2023-04-15T10:57:38;1.10;;;0.70;;
44696;SDS011;57264;47.480;19.354;2023-04-15T11:05:19;0.97;;;0.90;;
44696;SDS011;57264;47.480;19.354;2023-04-15T11:07:53;1.20;;;0.80;;
44696;SDS011;57264;47.480;19.354;2023-04-15T11:13:04;2.27;;;1.07;;
44696;SDS011;57264;47.480;19.354;2023-04-15T11:15:34;2.90;;;1.10;;
44696;SDS011;57264;47.480;19.354;2023-04-15T11:21:06;0.87;;;0.60;;
44696;SDS011;57264;47.480;19.354;2023-04-15T11:23:40;0.90;;;0.70;;
44696;SDS011;57264;47.480;19.354;2023-04-15T11:26:11;1.50;;;1.23;;
44696;SDS011;57264;47.480;19.354;2023-04-15T11:28:38;1.83;;;1.33;;
44696;SDS011;57264;47.480;19.354;2023-04-15T11:31:12;1.07;;;0.97;;
44696;SDS011;57264;47.480;19.354;2023-04-15T11:33:46;0.90;;;0.80;;
44696;SDS011;57264;47.480;19.354;2023-04-15T11:36:26;1.20;;;0.97;;
44696;SDS011;57264;47.480;19.354;2023-04-15T11:38:53;1.77;;;0.93;;
44696;SDS011;57264;47.480;19.354;2023-04-15T11:41:20;1.23;;;0.83;;
44696;SDS011;57264;47.480;19.354;2023-04-15T11:43:46;1.60;;;1.00;;
44696;SDS011;57264;47.480;19.354;2023-04-15T11:46:12;2.10;;;1.20;;
44696;SDS011;57264;47.480;19.354;2023-04-15T11:48:40;2.23;;;1.20;;
44696;SDS011;57264;47.480;19.354;2023-04-15T11:51:07;2.70;;;1.80;;
44696;SDS011;57264;47.480;19.354;2023-04-15T11:53:37;2.70;;;2.00;;
44696;SDS011;57264;47.480;19.354;2023-04-15T11:56:07;2.53;;;2.00;;
44696;SDS011;57264;47.480;19.354;2023-04-15T11:58:34;2.33;;;1.80;;
44696;SDS011;57264;47.480;19.354;2023-04-15T12:01:05;3.23;;;1.53;;
44696;SDS011;57264;47.480;19.354;2023-04-15T12:06:36;2.43;;;1.00;;
44696;SDS011;57264;47.480;19.354;2023-04-15T12:11:35;2.33;;;0.70;;
44696;SDS011;57264;47.480;19.354;2023-04-15T12:14:04;1.08;;;0.43;;
44696;SDS011;57264;47.480;19.354;2023-04-15T12:16:37;0.57;;;0.43;;
44696;SDS011;57264;47.480;19.354;2023-04-15T12:19:09;1.67;;;0.63;;
44696;SDS011;57264;47.480;19.354;2023-04-15T12:21:37;0.57;;;0.57;;
44696;SDS011;57264;47.480;19.354;2023-04-15T12:24:06;0.60;;;0.50;;
44696;SDS011;57264;47.480;19.354;2023-04-15T12:26:37;1.70;;;0.63;;
44696;SDS011;57264;47.480;19.354;2023-04-15T12:29:07;0.80;;;0.40;;
44696;SDS011;57264;47.480;19.354;2023-04-15T12:31:33;1.10;;;0.60;;
44696;SDS011;57264;47.480;19.354;2023-04-15T12:34:01;0.53;;;0.53;;
44696;SDS011;57264;47.480;19.354;2023-04-15T12:36:27;0.60;;;0.50;;
44696;SDS011;57264;47.480;19.354;2023-04-15T12:39:04;0.73;;;0.30;;
44696;SDS011;57264;47.480;19.354;2023-04-15T12:41:33;0.43;;;0.37;;
44696;SDS011;57264;47.480;19.354;2023-04-15T12:43:58;0.60;;;0.60;;
44696;SDS011;57264;47.480;19.354;2023-04-15T12:46:24;0.43;;;0.40;;
44696;SDS011;57264;47.480;19.354;2023-04-15T12:48:51;1.17;;;0.50;;
44696;SDS011;57264;47.480;19.354;2023-04-15T12:51:17;0.40;;;0.40;;
44696;SDS011;57264;47.480;19.354;2023-04-15T12:53:45;0.60;;;0.30;;
44696;SDS011;57264;47.480;19.354;2023-04-15T12:56:12;1.20;;;0.43;;
44696;SDS011;57264;47.480;19.354;2023-04-15T12:58:37;0.93;;;0.80;;
44696;SDS011;57264;47.480;19.354;2023-04-15T13:01:03;1.00;;;0.70;;
44696;SDS011;57264;47.480;19.354;2023-04-15T13:03:28;3.13;;;0.80;;
44696;SDS011;57264;47.480;19.354;2023-04-15T13:05:54;0.77;;;0.70;;
44696;SDS011;57264;47.480;19.354;2023-04-15T13:08:21;2.80;;;2.10;;
44696;SDS011;57264;47.480;19.354;2023-04-15T13:10:47;1.53;;;1.00;;
44696;SDS011;57264;47.480;19.354;2023-04-15T13:13:13;0.60;;;0.60;;
44696;SDS011;57264;47.480;19.354;2023-04-15T13:15:41;2.63;;;0.77;;
44696;SDS011;57264;47.480;19.354;2023-04-15T13:18:09;0.50;;;0.50;;
44696;SDS011;57264;47.480;19.354;2023-04-15T13:20:35;1.23;;;0.60;;
44696;SDS011;57264;47.480;19.354;2023-04-15T13:23:00;3.20;;;0.77;;
44696;SDS011;57264;47.480;19.354;2023-04-15T13:25:26;1.70;;;0.90;;
44696;SDS011;57264;47.480;19.354;2023-04-15T13:27:52;1.53;;;0.90;;
44696;SDS011;57264;47.480;19.354;2023-04-15T13:30:17;1.07;;;0.97;;
44696;SDS011;57264;47.480;19.354;2023-04-15T13:32:43;1.53;;;0.80;;
44696;SDS011;57264;47.480;19.354;2023-04-15T13:35:08;0.80;;;0.80;;
44696;SDS011;57264;47.480;19.354;2023-04-15T13:37:34;0.70;;;0.63;;
44696;SDS011;57264;47.480;19.354;2023-04-15T13:39:59;1.60;;;1.07;;
44696;SDS011;57264;47.480;19.354;2023-04-15T13:42:25;1.83;;;1.30;;
44696;SDS011;57264;47.480;19.354;2023-04-15T13:44:51;1.40;;;1.10;;
44696;SDS011;57264;47.480;19.354;2023-04-15T13:47:20;2.13;;;1.60;;
44696;SDS011;57264;47.480;19.354;2023-04-15T13:49:46;1.40;;;0.97;;
44696;SDS011;57264;47.480;19.354;2023-04-15T13:52:12;2.23;;;1.30;;
44696;SDS011;57264;47.480;19.354;2023-04-15T13:54:37;2.50;;;1.83;;
44696;SDS011;57264;47.480;19.354;2023-04-15T13:57:03;2.73;;;1.80;;
44696;SDS011;57264;47.480;19.354;2023-04-15T13:59:33;1.53;;;1.20;;
44696;SDS011;57264;47.480;19.354;2023-04-15T14:01:59;5.33;;;2.00;;
44696;SDS011;57264;47.480;19.354;2023-04-15T14:04:25;1.10;;;1.00;;
44696;SDS011;57264;47.480;19.354;2023-04-15T14:06:50;1.60;;;1.50;;
44696;SDS011;57264;47.480;19.354;2023-04-15T14:09:16;1.97;;;1.30;;
44696;SDS011;57264;47.480;19.354;2023-04-15T14:11:41;2.13;;;1.50;;
44696;SDS011;57264;47.480;19.354;2023-04-15T14:14:07;5.13;;;2.87;;
44696;SDS011;57264;47.480;19.354;2023-04-15T14:16:32;6.20;;;3.10;;
44696;SDS011;57264;47.480;19.354;2023-04-15T14:18:58;3.17;;;2.40;;
44696;SDS011;57264;47.480;19.354;2023-04-15T14:21:24;2.43;;;1.80;;
44696;SDS011;57264;47.480;19.354;2023-04-15T14:23:51;1.80;;;1.60;;
44696;SDS011;57264;47.480;19.354;2023-04-15T14:26:17;1.30;;;1.20;;
44696;SDS011;57264;47.480;19.354;2023-04-15T14:28:43;1.60;;;1.50;;
44696;SDS011;57264;47.480;19.354;2023-04-15T14:31:09;4.97;;;3.97;;
44696;SDS011;57264;47.480;19.354;2023-04-15T14:33:35;6.67;;;4.37;;
44696;SDS011;57264;47.480;19.354;2023-04-15T14:36:00;4.37;;;1.90;;
44696;SDS011;57264;47.480;19.354;2023-04-15T14:38:26;3.20;;;1.87;;
44696;SDS011;57264;47.480;19.354;2023-04-15T14:40:51;1.73;;;1.63;;
44696;SDS011;57264;47.480;19.354;2023-04-15T14:43:17;3.30;;;2.20;;
44696;SDS011;57264;47.480;19.354;2023-04-15T14:45:43;3.50;;;2.63;;
44696;SDS011;57264;47.480;19.354;2023-04-15T14:48:08;5.10;;;3.43;;
44696;SDS011;57264;47.480;19.354;2023-04-15T14:50:34;2.10;;;1.90;;
44696;SDS011;57264;47.480;19.354;2023-04-15T14:53:00;5.20;;;2.50;;
44696;SDS011;57264;47.480;19.354;2023-04-15T14:55:26;1.90;;;1.40;;
44696;SDS011;57264;47.480;19.354;2023-04-15T14:57:51;2.30;;;1.60;;